AFR609 SBFZ-SOCA
Flight info
| Callsign | AFR609 |
|---|---|
| Flight time | 2h 16m |
| Altitude | 38000 |
| Route | ASOVU DCT POSPI UM791 SIKUD DCT ALDIX ALDIX1S |
| Aircraft | A343/H-SDE2E3FGHIJ4J5M1RWXY/LB1D1 |
Departure
| Time | 2026-04-29 16:17 |
|---|---|
| Airport | Pinto Martins International Airport (SBFZ) |
Arrival
| Time | 2026-04-29 18:33 |
|---|---|
| Airport | Cayenne – Félix Eboué Airport (SOCA) |
| Time | Latitude | Longitude | Altitude | Speed | Heading |
|---|---|---|---|---|---|
| 2026-04-29 15:41 | -3.77758 | -38.54111 | 99 ft | 0 kts | 194° |
| 2026-04-29 16:09 | -3.77750 | -38.54109 | 99 ft | 4 kts | 196° |
| 2026-04-29 16:10 | -3.77725 | -38.54100 | 98 ft | 4 kts | 207° |
| 2026-04-29 16:10 | -3.77702 | -38.54085 | 96 ft | 4 kts | 226° |
| 2026-04-29 16:10 | -3.77689 | -38.54064 | 95 ft | 4 kts | 266° |
| 2026-04-29 16:10 | -3.77690 | -38.54051 | 96 ft | 1 kts | 285° |
| 2026-04-29 16:11 | -3.77690 | -38.54049 | 96 ft | 0 kts | 285° |
| 2026-04-29 16:12 | -3.77689 | -38.54052 | 96 ft | 2 kts | 285° |
| 2026-04-29 16:12 | -3.77683 | -38.54077 | 97 ft | 6 kts | 285° |
| 2026-04-29 16:13 | -3.77668 | -38.54130 | 98 ft | 10 kts | 285° |
| 2026-04-29 16:13 | -3.77647 | -38.54210 | 98 ft | 13 kts | 284° |
| 2026-04-29 16:13 | -3.77624 | -38.54301 | 98 ft | 14 kts | 284° |
| 2026-04-29 16:13 | -3.77600 | -38.54359 | 99 ft | 6 kts | 315° |
| 2026-04-29 16:14 | -3.77562 | -38.54372 | 99 ft | 6 kts | 346° |
| 2026-04-29 16:14 | -3.77519 | -38.54384 | 99 ft | 9 kts | 340° |
| 2026-04-29 16:14 | -3.77480 | -38.54429 | 97 ft | 9 kts | 285° |
| 2026-04-29 16:14 | -3.77462 | -38.54488 | 100 ft | 9 kts | 291° |
| 2026-04-29 16:15 | -3.77417 | -38.54506 | 99 ft | 7 kts | 12° |
| 2026-04-29 16:15 | -3.77372 | -38.54493 | 98 ft | 7 kts | 15° |
| 2026-04-29 16:15 | -3.77330 | -38.54480 | 99 ft | 6 kts | 21° |
| 2026-04-29 16:15 | -3.77314 | -38.54454 | 99 ft | 4 kts | 81° |
| 2026-04-29 16:16 | -3.77319 | -38.54433 | 98 ft | 5 kts | 106° |
| 2026-04-29 16:16 | -3.77365 | -38.54261 | 100 ft | 51 kts | 104° |
| 2026-04-29 16:16 | -3.77502 | -38.53750 | 99 ft | 99 kts | 105° |
| 2026-04-29 16:16 | -3.77713 | -38.52950 | 108 ft | 136 kts | 106° |
| 2026-04-29 16:17 | -3.77926 | -38.52040 | 527 ft | 133 kts | 106° |
| 2026-04-29 16:17 | -3.78142 | -38.51132 | 955 ft | 136 kts | 105° |
| 2026-04-29 16:17 | -3.78187 | -38.50160 | 1283 ft | 153 kts | 73° |
| 2026-04-29 16:17 | -3.77615 | -38.49174 | 1563 ft | 177 kts | 52° |
| 2026-04-29 16:18 | -3.76587 | -38.48349 | 1802 ft | 206 kts | 29° |
| 2026-04-29 16:18 | -3.75046 | -38.48231 | 1992 ft | 246 kts | 346° |
| 2026-04-29 16:18 | -3.73454 | -38.49068 | 2381 ft | 271 kts | 327° |
| 2026-04-29 16:18 | -3.71883 | -38.50172 | 3131 ft | 276 kts | 326° |
| 2026-04-29 16:19 | -3.70292 | -38.51263 | 3994 ft | 279 kts | 327° |
| 2026-04-29 16:19 | -3.68677 | -38.52323 | 4720 ft | 285 kts | 328° |
| 2026-04-29 16:19 | -3.67003 | -38.53409 | 5472 ft | 289 kts | 327° |
| 2026-04-29 16:19 | -3.65460 | -38.54724 | 6235 ft | 294 kts | 311° |
| 2026-04-29 16:20 | -3.64346 | -38.56442 | 6969 ft | 297 kts | 295° |
| 2026-04-29 16:20 | -3.63520 | -38.58343 | 7705 ft | 299 kts | 292° |
| 2026-04-29 16:20 | -3.62727 | -38.60283 | 8436 ft | 303 kts | 292° |
| 2026-04-29 16:20 | -3.61921 | -38.62247 | 9148 ft | 306 kts | 293° |
| 2026-04-29 16:21 | -3.61103 | -38.64223 | 9881 ft | 309 kts | 293° |
| 2026-04-29 16:21 | -3.60260 | -38.66250 | 10325 ft | 322 kts | 294° |
| 2026-04-29 16:21 | -3.59375 | -38.68368 | 10619 ft | 338 kts | 293° |
| 2026-04-29 16:21 | -3.58447 | -38.70590 | 10938 ft | 354 kts | 293° |
| 2026-04-29 16:22 | -3.57474 | -38.72919 | 11221 ft | 368 kts | 293° |
| 2026-04-29 16:22 | -3.56466 | -38.75330 | 11526 ft | 381 kts | 293° |
| 2026-04-29 16:22 | -3.55432 | -38.77805 | 11973 ft | 388 kts | 293° |
| 2026-04-29 16:22 | -3.54387 | -38.80303 | 12568 ft | 390 kts | 293° |
| 2026-04-29 16:23 | -3.53352 | -38.82778 | 13177 ft | 392 kts | 293° |
| 2026-04-29 16:23 | -3.52301 | -38.85291 | 13809 ft | 393 kts | 293° |
| 2026-04-29 16:23 | -3.51239 | -38.87831 | 14236 ft | 399 kts | 294° |
| 2026-04-29 16:23 | -3.50161 | -38.90407 | 14677 ft | 403 kts | 293° |
| 2026-04-29 16:24 | -3.49082 | -38.92986 | 15298 ft | 402 kts | 294° |
| 2026-04-29 16:24 | -3.47997 | -38.95580 | 15735 ft | 407 kts | 294° |
| 2026-04-29 16:24 | -3.46896 | -38.98210 | 16225 ft | 410 kts | 294° |
| 2026-04-29 16:24 | -3.45796 | -39.00838 | 16769 ft | 412 kts | 294° |
| 2026-04-29 16:25 | -3.44681 | -39.03502 | 17212 ft | 417 kts | 294° |
| 2026-04-29 16:25 | -3.43557 | -39.06187 | 17774 ft | 419 kts | 294° |
| 2026-04-29 16:25 | -3.42426 | -39.08888 | 18231 ft | 423 kts | 294° |
| 2026-04-29 16:25 | -3.41279 | -39.11628 | 18651 ft | 427 kts | 294° |
| 2026-04-29 16:26 | -3.40128 | -39.14378 | 19064 ft | 430 kts | 294° |
| 2026-04-29 16:26 | -3.38963 | -39.17161 | 19470 ft | 434 kts | 294° |
| 2026-04-29 16:26 | -3.37792 | -39.19956 | 19867 ft | 438 kts | 294° |
| 2026-04-29 16:26 | -3.36622 | -39.22749 | 20276 ft | 441 kts | 294° |
| 2026-04-29 16:27 | -3.35427 | -39.25602 | 20680 ft | 445 kts | 294° |
| 2026-04-29 16:27 | -3.34226 | -39.28470 | 21078 ft | 448 kts | 294° |
| 2026-04-29 16:27 | -3.33012 | -39.31366 | 21450 ft | 452 kts | 294° |
| 2026-04-29 16:27 | -3.31793 | -39.34277 | 21843 ft | 455 kts | 294° |
| 2026-04-29 16:28 | -3.30565 | -39.37207 | 22224 ft | 458 kts | 294° |
| 2026-04-29 16:28 | -3.29341 | -39.40125 | 22615 ft | 461 kts | 294° |
| 2026-04-29 16:28 | -3.27961 | -39.43075 | 22982 ft | 464 kts | 299° |
| 2026-04-29 16:28 | -3.26457 | -39.45895 | 23347 ft | 467 kts | 301° |
| 2026-04-29 16:29 | -3.24851 | -39.48733 | 23675 ft | 469 kts | 302° |
| 2026-04-29 16:29 | -3.23212 | -39.51559 | 24005 ft | 471 kts | 302° |
| 2026-04-29 16:29 | -3.21555 | -39.54397 | 24356 ft | 473 kts | 302° |
| 2026-04-29 16:29 | -3.19893 | -39.57255 | 24691 ft | 475 kts | 302° |
| 2026-04-29 16:30 | -3.18235 | -39.60121 | 25059 ft | 476 kts | 301° |
| 2026-04-29 16:30 | -3.16575 | -39.63008 | 25398 ft | 478 kts | 301° |
| 2026-04-29 16:30 | -3.14917 | -39.65900 | 25729 ft | 480 kts | 301° |
| 2026-04-29 16:30 | -3.13251 | -39.68812 | 26044 ft | 482 kts | 301° |
| 2026-04-29 16:31 | -3.11580 | -39.71736 | 26389 ft | 484 kts | 301° |
| 2026-04-29 16:31 | -3.09903 | -39.74669 | 26746 ft | 486 kts | 301° |
| 2026-04-29 16:31 | -3.08238 | -39.77580 | 27053 ft | 488 kts | 301° |
| 2026-04-29 16:31 | -3.06548 | -39.80534 | 27371 ft | 490 kts | 301° |
| 2026-04-29 16:32 | -3.04849 | -39.83504 | 27726 ft | 491 kts | 301° |
| 2026-04-29 16:32 | -3.03721 | -39.85477 | 27960 ft | 492 kts | 301° |
| 2026-04-29 16:32 | -3.01438 | -39.89466 | 28335 ft | 495 kts | 301° |
| 2026-04-29 16:32 | -2.99724 | -39.92461 | 28617 ft | 497 kts | 301° |
| 2026-04-29 16:33 | -2.96276 | -39.98484 | 29239 ft | 500 kts | 300° |
| 2026-04-29 16:33 | -2.94544 | -40.01510 | 29510 ft | 502 kts | 300° |
| 2026-04-29 16:33 | -2.92803 | -40.04550 | 29798 ft | 503 kts | 300° |
| 2026-04-29 16:34 | -2.91651 | -40.06562 | 30039 ft | 503 kts | 300° |
| 2026-04-29 16:34 | -2.89338 | -40.10601 | 30339 ft | 505 kts | 300° |
| 2026-04-29 16:34 | -2.87584 | -40.13663 | 30556 ft | 507 kts | 300° |
| 2026-04-29 16:34 | -2.85829 | -40.16728 | 30899 ft | 507 kts | 300° |
| 2026-04-29 16:35 | -2.84663 | -40.18764 | 31112 ft | 506 kts | 300° |
| 2026-04-29 16:35 | -2.82915 | -40.21815 | 31420 ft | 505 kts | 300° |
| 2026-04-29 16:35 | -2.81168 | -40.24866 | 31720 ft | 505 kts | 300° |
| 2026-04-29 16:35 | -2.79418 | -40.27920 | 32023 ft | 503 kts | 300° |
| 2026-04-29 16:36 | -2.77679 | -40.30955 | 32333 ft | 502 kts | 300° |
| 2026-04-29 16:36 | -2.75936 | -40.33997 | 32608 ft | 501 kts | 300° |
| 2026-04-29 16:36 | -2.74224 | -40.36985 | 32886 ft | 500 kts | 300° |
| 2026-04-29 16:36 | -2.72494 | -40.40003 | 33171 ft | 500 kts | 300° |
| 2026-04-29 16:37 | -2.70767 | -40.43017 | 33485 ft | 499 kts | 300° |
| 2026-04-29 16:37 | -2.69043 | -40.46025 | 33783 ft | 498 kts | 300° |
| 2026-04-29 16:37 | -2.67319 | -40.49034 | 34022 ft | 497 kts | 300° |
| 2026-04-29 16:37 | -2.66180 | -40.51020 | 34212 ft | 495 kts | 300° |
| 2026-04-29 16:38 | -2.63889 | -40.55016 | 34532 ft | 494 kts | 300° |
| 2026-04-29 16:38 | -2.62176 | -40.58004 | 34733 ft | 494 kts | 300° |
| 2026-04-29 16:38 | -2.60486 | -40.60952 | 34924 ft | 494 kts | 300° |
| 2026-04-29 16:38 | -2.58780 | -40.63926 | 35161 ft | 492 kts | 300° |
| 2026-04-29 16:39 | -2.57078 | -40.66894 | 35373 ft | 491 kts | 300° |
| 2026-04-29 16:39 | -2.55376 | -40.69862 | 35600 ft | 490 kts | 300° |
| 2026-04-29 16:39 | -2.53680 | -40.72820 | 35815 ft | 489 kts | 300° |
| 2026-04-29 16:39 | -2.51991 | -40.75765 | 36029 ft | 488 kts | 300° |
| 2026-04-29 16:40 | -2.50297 | -40.78719 | 36155 ft | 489 kts | 300° |
| 2026-04-29 16:40 | -2.48623 | -40.81636 | 36313 ft | 488 kts | 300° |
| 2026-04-29 16:40 | -2.46932 | -40.84585 | 36519 ft | 487 kts | 300° |
| 2026-04-29 16:40 | -2.45246 | -40.87523 | 36796 ft | 484 kts | 300° |
| 2026-04-29 16:41 | -2.43568 | -40.90448 | 36995 ft | 483 kts | 300° |
| 2026-04-29 16:41 | -2.41893 | -40.93368 | 37172 ft | 483 kts | 299° |
| 2026-04-29 16:41 | -2.40242 | -40.96245 | 37307 ft | 483 kts | 299° |
| 2026-04-29 16:41 | -2.38566 | -40.99165 | 37408 ft | 484 kts | 299° |
| 2026-04-29 16:42 | -2.36894 | -41.02079 | 37558 ft | 483 kts | 299° |
| 2026-04-29 16:42 | -2.35221 | -41.04994 | 37650 ft | 484 kts | 299° |
| 2026-04-29 16:42 | -2.33543 | -41.07920 | 37851 ft | 483 kts | 299° |
| 2026-04-29 16:42 | -2.31861 | -41.10849 | 37884 ft | 484 kts | 299° |
| 2026-04-29 16:43 | -2.28509 | -41.16688 | 37888 ft | 485 kts | 299° |
| 2026-04-29 16:43 | -2.25146 | -41.22548 | 37885 ft | 491 kts | 299° |
| 2026-04-29 16:44 | -2.21725 | -41.28506 | 37884 ft | 496 kts | 299° |
| 2026-04-29 16:44 | -2.18271 | -41.34522 | 37888 ft | 502 kts | 299° |
| 2026-04-29 16:45 | -2.14776 | -41.40605 | 37878 ft | 504 kts | 299° |
| 2026-04-29 16:45 | -2.11307 | -41.46646 | 37881 ft | 502 kts | 299° |
| 2026-04-29 16:46 | -2.07831 | -41.52695 | 37882 ft | 500 kts | 299° |
| 2026-04-29 16:46 | -2.04390 | -41.58686 | 37881 ft | 500 kts | 298° |
| 2026-04-29 16:47 | -2.00914 | -41.64735 | 37885 ft | 500 kts | 299° |
| 2026-04-29 16:47 | -1.97447 | -41.70770 | 37878 ft | 499 kts | 299° |
| 2026-04-29 16:48 | -1.94009 | -41.76752 | 37882 ft | 499 kts | 298° |
| 2026-04-29 16:48 | -1.90553 | -41.82765 | 37886 ft | 497 kts | 298° |
| 2026-04-29 16:49 | -1.87123 | -41.88732 | 37883 ft | 496 kts | 298° |
| 2026-04-29 16:49 | -1.83682 | -41.94719 | 37883 ft | 496 kts | 298° |
| 2026-04-29 16:50 | -1.80240 | -42.00704 | 37888 ft | 493 kts | 298° |
| 2026-04-29 16:50 | -1.76845 | -42.06609 | 37886 ft | 491 kts | 298° |
| 2026-04-29 16:51 | -1.73437 | -42.12537 | 37881 ft | 490 kts | 298° |
| 2026-04-29 16:51 | -1.70032 | -42.18458 | 37880 ft | 490 kts | 298° |
| 2026-04-29 16:52 | -1.66657 | -42.24327 | 37883 ft | 490 kts | 298° |
| 2026-04-29 16:52 | -1.63258 | -42.30237 | 37876 ft | 491 kts | 298° |
| 2026-04-29 16:53 | -1.59859 | -42.36146 | 37881 ft | 490 kts | 298° |
| 2026-04-29 16:53 | -1.56453 | -42.42066 | 37881 ft | 490 kts | 298° |
| 2026-04-29 16:54 | -1.53053 | -42.47975 | 37884 ft | 490 kts | 298° |
| 2026-04-29 16:54 | -1.49654 | -42.53885 | 37883 ft | 490 kts | 298° |
| 2026-04-29 16:55 | -1.46256 | -42.59790 | 37880 ft | 490 kts | 298° |
| 2026-04-29 16:55 | -1.42858 | -42.65695 | 37880 ft | 490 kts | 298° |
| 2026-04-29 16:56 | -1.39464 | -42.71592 | 37892 ft | 489 kts | 298° |
| 2026-04-29 16:56 | -1.35970 | -42.77410 | 37888 ft | 489 kts | 305° |
| 2026-04-29 16:57 | -1.31675 | -42.82615 | 37885 ft | 489 kts | 309° |
| 2026-04-29 16:57 | -1.27164 | -42.87706 | 37885 ft | 488 kts | 310° |
| 2026-04-29 16:58 | -1.22629 | -42.92764 | 37885 ft | 488 kts | 310° |
| 2026-04-29 16:58 | -1.18113 | -42.97819 | 37885 ft | 488 kts | 310° |
| 2026-04-29 16:59 | -1.13605 | -43.02883 | 37885 ft | 488 kts | 310° |
| 2026-04-29 16:59 | -1.09099 | -43.07951 | 37883 ft | 488 kts | 310° |
| 2026-04-29 17:00 | -1.04578 | -43.13033 | 37887 ft | 489 kts | 310° |
| 2026-04-29 17:00 | -1.00057 | -43.18116 | 37887 ft | 489 kts | 310° |
| 2026-04-29 17:01 | -0.95537 | -43.23197 | 37886 ft | 489 kts | 310° |
| 2026-04-29 17:01 | -0.91051 | -43.28240 | 37883 ft | 489 kts | 310° |
| 2026-04-29 17:02 | -0.86532 | -43.33319 | 37882 ft | 489 kts | 310° |
| 2026-04-29 17:02 | -0.82012 | -43.38399 | 37883 ft | 489 kts | 310° |
| 2026-04-29 17:03 | -0.77437 | -43.43540 | 37886 ft | 493 kts | 310° |
| 2026-04-29 17:03 | -0.72898 | -43.48642 | 37881 ft | 495 kts | 310° |
| 2026-04-29 17:04 | -0.68328 | -43.53777 | 37885 ft | 495 kts | 310° |
| 2026-04-29 17:04 | -0.63747 | -43.58924 | 37885 ft | 495 kts | 310° |
| 2026-04-29 17:05 | -0.59168 | -43.64077 | 37886 ft | 495 kts | 311° |
| 2026-04-29 17:05 | -0.54596 | -43.69212 | 37884 ft | 494 kts | 311° |
| 2026-04-29 17:06 | -0.50044 | -43.74325 | 37885 ft | 494 kts | 310° |
| 2026-04-29 17:06 | -0.45469 | -43.79465 | 37885 ft | 494 kts | 311° |
| 2026-04-29 17:07 | -0.41673 | -43.83730 | 37883 ft | 493 kts | 311° |
| 2026-04-29 17:07 | -0.36387 | -43.89669 | 37884 ft | 491 kts | 310° |
| 2026-04-29 17:08 | -0.31851 | -43.94766 | 37884 ft | 489 kts | 311° |
| 2026-04-29 17:08 | -0.27320 | -43.99857 | 37889 ft | 490 kts | 310° |
| 2026-04-29 17:09 | -0.22798 | -44.04939 | 37887 ft | 489 kts | 310° |
| 2026-04-29 17:09 | -0.18306 | -44.09986 | 37884 ft | 488 kts | 310° |
| 2026-04-29 17:10 | -0.13789 | -44.15062 | 37883 ft | 488 kts | 310° |
| 2026-04-29 17:10 | -0.09275 | -44.20134 | 37884 ft | 488 kts | 310° |
| 2026-04-29 17:11 | -0.04762 | -44.25204 | 37881 ft | 487 kts | 310° |
| 2026-04-29 17:11 | -0.00287 | -44.30231 | 37880 ft | 486 kts | 310° |
| 2026-04-29 17:12 | 0.04202 | -44.35276 | 37887 ft | 484 kts | 310° |
| 2026-04-29 17:12 | 0.07926 | -44.39460 | 37880 ft | 484 kts | 310° |
| 2026-04-29 17:13 | 0.13158 | -44.45339 | 37880 ft | 483 kts | 310° |
| 2026-04-29 17:13 | 0.17606 | -44.50337 | 37884 ft | 482 kts | 310° |
| 2026-04-29 17:14 | 0.22064 | -44.55346 | 37878 ft | 482 kts | 310° |
| 2026-04-29 17:14 | 0.26532 | -44.60366 | 37881 ft | 482 kts | 310° |
| 2026-04-29 17:15 | 0.30967 | -44.65350 | 37883 ft | 482 kts | 310° |
| 2026-04-29 17:15 | 0.35429 | -44.70363 | 37889 ft | 481 kts | 310° |
| 2026-04-29 17:16 | 0.39888 | -44.75374 | 37891 ft | 481 kts | 310° |
| 2026-04-29 17:16 | 0.44331 | -44.80366 | 37884 ft | 481 kts | 310° |
| 2026-04-29 17:17 | 0.48757 | -44.85340 | 37883 ft | 482 kts | 310° |
| 2026-04-29 17:17 | 0.53229 | -44.90365 | 37884 ft | 483 kts | 310° |
| 2026-04-29 17:18 | 0.57676 | -44.95363 | 37887 ft | 482 kts | 310° |
| 2026-04-29 17:18 | 0.62144 | -45.00384 | 37883 ft | 482 kts | 310° |
| 2026-04-29 17:19 | 0.66586 | -45.05376 | 37884 ft | 482 kts | 310° |
| 2026-04-29 17:19 | 0.71047 | -45.10390 | 37884 ft | 482 kts | 310° |
| 2026-04-29 17:20 | 0.74759 | -45.14562 | 37884 ft | 482 kts | 310° |
| 2026-04-29 17:20 | 0.79225 | -45.19581 | 37883 ft | 482 kts | 310° |
| 2026-04-29 17:21 | 0.83666 | -45.24572 | 37880 ft | 483 kts | 310° |
| 2026-04-29 17:21 | 0.88135 | -45.29595 | 37886 ft | 483 kts | 310° |
| 2026-04-29 17:22 | 0.92600 | -45.34614 | 37890 ft | 483 kts | 310° |
| 2026-04-29 17:22 | 0.97075 | -45.39647 | 37880 ft | 483 kts | 310° |
| 2026-04-29 17:23 | 1.01550 | -45.44680 | 37881 ft | 485 kts | 310° |
| 2026-04-29 17:23 | 1.06016 | -45.49697 | 37883 ft | 485 kts | 310° |
| 2026-04-29 17:24 | 1.10498 | -45.54733 | 37881 ft | 485 kts | 310° |
| 2026-04-29 17:24 | 1.14994 | -45.59788 | 37884 ft | 486 kts | 310° |
| 2026-04-29 17:25 | 1.19479 | -45.64830 | 37884 ft | 488 kts | 310° |
| 2026-04-29 17:25 | 1.23992 | -45.69905 | 37884 ft | 488 kts | 310° |
| 2026-04-29 17:26 | 1.28502 | -45.74975 | 37881 ft | 488 kts | 310° |
| 2026-04-29 17:26 | 1.33018 | -45.80052 | 37882 ft | 488 kts | 310° |
| 2026-04-29 17:27 | 1.37529 | -45.85125 | 37884 ft | 487 kts | 310° |
| 2026-04-29 17:27 | 1.41993 | -45.90145 | 37884 ft | 484 kts | 310° |
| 2026-04-29 17:28 | 1.46461 | -45.95170 | 37881 ft | 482 kts | 310° |
| 2026-04-29 17:28 | 1.50922 | -46.00188 | 37881 ft | 482 kts | 310° |
| 2026-04-29 17:29 | 1.55379 | -46.05201 | 37881 ft | 482 kts | 310° |
| 2026-04-29 17:29 | 1.59830 | -46.10209 | 37881 ft | 482 kts | 310° |
| 2026-04-29 17:30 | 1.64256 | -46.15188 | 37881 ft | 482 kts | 310° |
| 2026-04-29 17:30 | 1.68714 | -46.20202 | 37881 ft | 481 kts | 310° |
| 2026-04-29 17:31 | 1.73162 | -46.25207 | 37878 ft | 480 kts | 310° |
| 2026-04-29 17:31 | 1.77577 | -46.30175 | 37881 ft | 480 kts | 310° |
| 2026-04-29 17:32 | 1.82014 | -46.35168 | 37879 ft | 480 kts | 310° |
| 2026-04-29 17:32 | 1.86455 | -46.40166 | 37878 ft | 480 kts | 310° |
| 2026-04-29 17:33 | 1.90909 | -46.45179 | 37884 ft | 481 kts | 310° |
| 2026-04-29 17:33 | 1.95323 | -46.50148 | 37885 ft | 481 kts | 310° |
| 2026-04-29 17:34 | 1.99785 | -46.55171 | 37880 ft | 482 kts | 310° |
| 2026-04-29 17:34 | 2.04157 | -46.60261 | 37880 ft | 482 kts | 303° |
| 2026-04-29 17:35 | 2.06668 | -46.65205 | 37880 ft | 479 kts | 292° |
| 2026-04-29 17:35 | 2.08366 | -46.69294 | 37882 ft | 480 kts | 291° |
| 2026-04-29 17:36 | 2.10901 | -46.75495 | 37881 ft | 480 kts | 291° |
| 2026-04-29 17:36 | 2.13426 | -46.81690 | 37882 ft | 481 kts | 291° |
| 2026-04-29 17:37 | 2.15939 | -46.87859 | 37883 ft | 481 kts | 291° |
| 2026-04-29 17:37 | 2.18462 | -46.94056 | 37885 ft | 480 kts | 291° |
| 2026-04-29 17:38 | 2.20982 | -47.00246 | 37879 ft | 480 kts | 291° |
| 2026-04-29 17:38 | 2.23484 | -47.06394 | 37877 ft | 480 kts | 291° |
| 2026-04-29 17:39 | 2.26001 | -47.12578 | 37878 ft | 481 kts | 291° |
| 2026-04-29 17:39 | 2.28529 | -47.18789 | 37878 ft | 481 kts | 291° |
| 2026-04-29 17:40 | 2.31035 | -47.24948 | 37879 ft | 480 kts | 291° |
| 2026-04-29 17:40 | 2.33557 | -47.31148 | 37881 ft | 481 kts | 291° |
| 2026-04-29 17:41 | 2.36080 | -47.37351 | 37882 ft | 481 kts | 291° |
| 2026-04-29 17:41 | 2.38603 | -47.43554 | 37880 ft | 480 kts | 291° |
| 2026-04-29 17:42 | 2.41106 | -47.49709 | 37878 ft | 480 kts | 291° |
| 2026-04-29 17:42 | 2.43625 | -47.55906 | 37878 ft | 480 kts | 291° |
| 2026-04-29 17:43 | 2.46139 | -47.62090 | 37876 ft | 479 kts | 291° |
| 2026-04-29 17:43 | 2.48632 | -47.68222 | 37878 ft | 478 kts | 291° |
| 2026-04-29 17:44 | 2.51142 | -47.74399 | 37879 ft | 478 kts | 291° |
| 2026-04-29 17:44 | 2.53647 | -47.80565 | 37878 ft | 477 kts | 291° |
| 2026-04-29 17:45 | 2.56128 | -47.86671 | 37875 ft | 475 kts | 291° |
| 2026-04-29 17:45 | 2.58619 | -47.92805 | 37876 ft | 474 kts | 291° |
| 2026-04-29 17:46 | 2.61105 | -47.98926 | 37875 ft | 474 kts | 291° |
| 2026-04-29 17:46 | 2.63575 | -48.05009 | 37876 ft | 474 kts | 291° |
| 2026-04-29 17:47 | 2.66060 | -48.11127 | 37875 ft | 473 kts | 291° |
| 2026-04-29 17:47 | 2.68526 | -48.17204 | 37875 ft | 473 kts | 291° |
| 2026-04-29 17:48 | 2.71006 | -48.23313 | 37875 ft | 473 kts | 291° |
| 2026-04-29 17:48 | 2.73491 | -48.29437 | 37877 ft | 475 kts | 291° |
| 2026-04-29 17:49 | 2.75980 | -48.35571 | 37872 ft | 475 kts | 291° |
| 2026-04-29 17:49 | 2.78455 | -48.41672 | 37872 ft | 475 kts | 291° |
| 2026-04-29 17:50 | 2.80950 | -48.47825 | 37875 ft | 476 kts | 291° |
| 2026-04-29 17:50 | 2.83433 | -48.53947 | 37876 ft | 477 kts | 291° |
| 2026-04-29 17:51 | 2.85930 | -48.60105 | 37880 ft | 477 kts | 291° |
| 2026-04-29 17:51 | 2.88426 | -48.66262 | 37872 ft | 476 kts | 291° |
| 2026-04-29 17:52 | 2.90901 | -48.72369 | 37876 ft | 475 kts | 291° |
| 2026-04-29 17:52 | 2.93390 | -48.78512 | 37878 ft | 475 kts | 291° |
| 2026-04-29 17:53 | 2.95877 | -48.84649 | 37877 ft | 475 kts | 291° |
| 2026-04-29 17:53 | 2.98345 | -48.90741 | 37879 ft | 475 kts | 291° |
| 2026-04-29 17:54 | 3.00832 | -48.96882 | 37879 ft | 475 kts | 291° |
| 2026-04-29 17:54 | 3.03314 | -49.03010 | 37878 ft | 475 kts | 291° |
| 2026-04-29 17:55 | 3.05796 | -49.09140 | 37877 ft | 475 kts | 291° |
| 2026-04-29 17:55 | 3.08277 | -49.15270 | 37879 ft | 475 kts | 291° |
| 2026-04-29 17:56 | 3.10766 | -49.21420 | 37876 ft | 475 kts | 291° |
| 2026-04-29 17:56 | 3.13233 | -49.27515 | 37879 ft | 475 kts | 291° |
| 2026-04-29 17:57 | 3.15721 | -49.33667 | 37879 ft | 476 kts | 291° |
| 2026-04-29 17:57 | 3.18213 | -49.39827 | 37878 ft | 478 kts | 291° |
| 2026-04-29 17:58 | 3.20682 | -49.45931 | 37878 ft | 475 kts | 291° |
| 2026-04-29 17:58 | 3.23154 | -49.52045 | 37878 ft | 473 kts | 291° |
| 2026-04-29 17:59 | 3.25625 | -49.58158 | 37879 ft | 473 kts | 291° |
| 2026-04-29 17:59 | 3.28087 | -49.64250 | 37879 ft | 473 kts | 291° |
| 2026-04-29 18:00 | 3.30553 | -49.70351 | 37880 ft | 473 kts | 291° |
| 2026-04-29 18:00 | 3.33022 | -49.76463 | 37878 ft | 473 kts | 290° |
| 2026-04-29 18:01 | 3.35476 | -49.82539 | 37884 ft | 473 kts | 290° |
| 2026-04-29 18:01 | 3.37945 | -49.88652 | 37881 ft | 473 kts | 290° |
| 2026-04-29 18:02 | 3.40412 | -49.94762 | 37881 ft | 473 kts | 290° |
| 2026-04-29 18:02 | 3.42882 | -50.00881 | 37881 ft | 473 kts | 290° |
| 2026-04-29 18:03 | 3.45351 | -50.06998 | 37881 ft | 473 kts | 290° |
| 2026-04-29 18:03 | 3.47400 | -50.12077 | 37881 ft | 473 kts | 290° |
| 2026-04-29 18:04 | 3.49869 | -50.18196 | 37880 ft | 473 kts | 290° |
| 2026-04-29 18:04 | 3.52341 | -50.24326 | 37886 ft | 475 kts | 291° |
| 2026-04-29 18:05 | 3.54799 | -50.30420 | 37881 ft | 474 kts | 291° |
| 2026-04-29 18:05 | 3.57268 | -50.36544 | 37881 ft | 474 kts | 291° |
| 2026-04-29 18:06 | 3.59742 | -50.42681 | 37879 ft | 474 kts | 291° |
| 2026-04-29 18:06 | 3.62199 | -50.48778 | 37881 ft | 474 kts | 291° |
| 2026-04-29 18:07 | 3.64667 | -50.54904 | 37878 ft | 474 kts | 291° |
| 2026-04-29 18:07 | 3.67135 | -50.61030 | 37878 ft | 474 kts | 291° |
| 2026-04-29 18:08 | 3.69605 | -50.67162 | 37879 ft | 474 kts | 291° |
| 2026-04-29 18:08 | 3.72070 | -50.73285 | 37879 ft | 474 kts | 291° |
| 2026-04-29 18:09 | 3.74523 | -50.79377 | 37879 ft | 474 kts | 291° |
| 2026-04-29 18:09 | 3.76989 | -50.85507 | 37879 ft | 473 kts | 291° |
| 2026-04-29 18:10 | 3.79402 | -50.91501 | 37871 ft | 455 kts | 291° |
| 2026-04-29 18:10 | 3.80583 | -50.94438 | 37575 ft | 452 kts | 291° |
| 2026-04-29 18:10 | 3.81740 | -50.97313 | 37177 ft | 449 kts | 291° |
| 2026-04-29 18:10 | 3.82905 | -51.00210 | 36634 ft | 449 kts | 291° |
| 2026-04-29 18:11 | 3.84073 | -51.03117 | 36050 ft | 450 kts | 291° |
| 2026-04-29 18:11 | 3.85247 | -51.06036 | 35420 ft | 453 kts | 291° |
| 2026-04-29 18:11 | 3.86428 | -51.08973 | 34769 ft | 456 kts | 292° |
| 2026-04-29 18:11 | 3.87618 | -51.11933 | 34090 ft | 460 kts | 292° |
| 2026-04-29 18:12 | 3.88822 | -51.14928 | 33316 ft | 465 kts | 292° |
| 2026-04-29 18:12 | 3.90036 | -51.17946 | 32591 ft | 468 kts | 291° |
| 2026-04-29 18:12 | 3.91242 | -51.20948 | 31869 ft | 471 kts | 291° |
| 2026-04-29 18:12 | 3.92474 | -51.24013 | 31110 ft | 476 kts | 291° |
| 2026-04-29 18:13 | 3.93714 | -51.27099 | 30310 ft | 481 kts | 291° |
| 2026-04-29 18:13 | 3.94969 | -51.30225 | 29654 ft | 483 kts | 291° |
| 2026-04-29 18:13 | 3.96221 | -51.33341 | 29095 ft | 480 kts | 291° |
| 2026-04-29 18:13 | 3.97468 | -51.36446 | 28542 ft | 478 kts | 291° |
| 2026-04-29 18:14 | 3.98707 | -51.39530 | 27997 ft | 476 kts | 291° |
| 2026-04-29 18:14 | 3.99925 | -51.42565 | 27450 ft | 474 kts | 291° |
| 2026-04-29 18:14 | 4.01156 | -51.45629 | 26894 ft | 472 kts | 291° |
| 2026-04-29 18:14 | 4.02381 | -51.48681 | 26349 ft | 471 kts | 291° |
| 2026-04-29 18:15 | 4.03603 | -51.51725 | 25788 ft | 470 kts | 291° |
| 2026-04-29 18:15 | 4.04820 | -51.54759 | 25230 ft | 469 kts | 291° |
| 2026-04-29 18:15 | 4.06021 | -51.57752 | 24691 ft | 468 kts | 291° |
| 2026-04-29 18:15 | 4.07234 | -51.60775 | 24124 ft | 467 kts | 291° |
| 2026-04-29 18:16 | 4.08448 | -51.63800 | 23565 ft | 467 kts | 291° |
| 2026-04-29 18:16 | 4.09661 | -51.66824 | 22934 ft | 467 kts | 291° |
| 2026-04-29 18:16 | 4.10872 | -51.69845 | 22360 ft | 465 kts | 292° |
| 2026-04-29 18:16 | 4.12074 | -51.72842 | 21804 ft | 462 kts | 292° |
| 2026-04-29 18:17 | 4.13273 | -51.75830 | 21236 ft | 460 kts | 292° |
| 2026-04-29 18:17 | 4.14461 | -51.78792 | 20710 ft | 458 kts | 292° |
| 2026-04-29 18:17 | 4.15648 | -51.81755 | 20158 ft | 455 kts | 292° |
| 2026-04-29 18:17 | 4.16810 | -51.84654 | 19629 ft | 453 kts | 292° |
| 2026-04-29 18:18 | 4.17986 | -51.87587 | 19094 ft | 451 kts | 292° |
| 2026-04-29 18:18 | 4.19157 | -51.90509 | 18569 ft | 449 kts | 292° |
| 2026-04-29 18:18 | 4.20319 | -51.93411 | 18053 ft | 446 kts | 292° |
| 2026-04-29 18:18 | 4.21456 | -51.96248 | 17461 ft | 444 kts | 292° |
| 2026-04-29 18:19 | 4.22606 | -51.99118 | 16930 ft | 440 kts | 292° |
| 2026-04-29 18:19 | 4.23802 | -52.01918 | 16432 ft | 435 kts | 298° |
| 2026-04-29 18:19 | 4.25507 | -52.04385 | 15880 ft | 425 kts | 310° |
| 2026-04-29 18:19 | 4.27368 | -52.06590 | 15344 ft | 405 kts | 312° |
| 2026-04-29 18:20 | 4.29189 | -52.08707 | 14845 ft | 397 kts | 312° |
| 2026-04-29 18:20 | 4.30978 | -52.10794 | 14576 ft | 390 kts | 311° |
| 2026-04-29 18:20 | 4.32703 | -52.12817 | 14286 ft | 372 kts | 311° |
| 2026-04-29 18:20 | 4.34337 | -52.14738 | 13873 ft | 352 kts | 311° |
| 2026-04-29 18:21 | 4.35870 | -52.16543 | 13419 ft | 336 kts | 311° |
| 2026-04-29 18:21 | 4.37361 | -52.18300 | 12936 ft | 322 kts | 311° |
| 2026-04-29 18:21 | 4.38782 | -52.19977 | 12490 ft | 311 kts | 311° |
| 2026-04-29 18:21 | 4.40184 | -52.21632 | 12066 ft | 312 kts | 311° |
| 2026-04-29 18:22 | 4.41579 | -52.23277 | 11631 ft | 315 kts | 311° |
| 2026-04-29 18:22 | 4.42993 | -52.24946 | 11201 ft | 312 kts | 311° |
| 2026-04-29 18:22 | 4.44406 | -52.26613 | 10766 ft | 313 kts | 311° |
| 2026-04-29 18:22 | 4.45812 | -52.28272 | 10358 ft | 313 kts | 311° |
| 2026-04-29 18:23 | 4.47213 | -52.29927 | 9930 ft | 306 kts | 311° |
| 2026-04-29 18:23 | 4.48574 | -52.31535 | 9483 ft | 298 kts | 311° |
| 2026-04-29 18:23 | 4.49887 | -52.33086 | 9011 ft | 292 kts | 311° |
| 2026-04-29 18:23 | 4.51188 | -52.34622 | 8533 ft | 286 kts | 312° |
| 2026-04-29 18:24 | 4.52441 | -52.36101 | 8103 ft | 277 kts | 312° |
| 2026-04-29 18:24 | 4.53677 | -52.37555 | 7726 ft | 272 kts | 311° |
| 2026-04-29 18:24 | 4.54909 | -52.39011 | 7358 ft | 276 kts | 311° |
| 2026-04-29 18:24 | 4.56151 | -52.40481 | 6984 ft | 273 kts | 312° |
| 2026-04-29 18:25 | 4.57361 | -52.41912 | 6636 ft | 264 kts | 311° |
| 2026-04-29 18:25 | 4.58532 | -52.43297 | 6251 ft | 257 kts | 311° |
| 2026-04-29 18:25 | 4.59671 | -52.44644 | 5888 ft | 249 kts | 312° |
| 2026-04-29 18:25 | 4.60777 | -52.45950 | 5526 ft | 243 kts | 313° |
| 2026-04-29 18:26 | 4.61856 | -52.47224 | 5175 ft | 237 kts | 313° |
| 2026-04-29 18:26 | 4.62916 | -52.48476 | 4829 ft | 232 kts | 313° |
| 2026-04-29 18:26 | 4.63937 | -52.49681 | 4481 ft | 226 kts | 313° |
| 2026-04-29 18:26 | 4.64947 | -52.50867 | 4163 ft | 220 kts | 314° |
| 2026-04-29 18:27 | 4.66088 | -52.51841 | 3859 ft | 214 kts | 333° |
| 2026-04-29 18:27 | 4.67407 | -52.52512 | 3580 ft | 211 kts | 338° |
| 2026-04-29 18:27 | 4.68722 | -52.53111 | 3346 ft | 202 kts | 339° |
| 2026-04-29 18:27 | 4.69980 | -52.53681 | 3059 ft | 194 kts | 339° |
| 2026-04-29 18:28 | 4.71219 | -52.54130 | 2754 ft | 184 kts | 351° |
| 2026-04-29 18:28 | 4.72451 | -52.54134 | 2467 ft | 174 kts | 15° |
| 2026-04-29 18:28 | 4.73527 | -52.53645 | 2169 ft | 168 kts | 39° |
| 2026-04-29 18:28 | 4.74244 | -52.52761 | 2005 ft | 159 kts | 59° |
| 2026-04-29 18:29 | 4.74737 | -52.51818 | 1985 ft | 153 kts | 62° |
| 2026-04-29 18:29 | 4.75049 | -52.51176 | 1991 ft | 152 kts | 62° |
| 2026-04-29 18:29 | 4.75670 | -52.49901 | 2014 ft | 155 kts | 64° |
| 2026-04-29 18:29 | 4.76118 | -52.48932 | 2009 ft | 153 kts | 66° |
| 2026-04-29 18:30 | 4.76560 | -52.47959 | 2021 ft | 152 kts | 63° |
| 2026-04-29 18:30 | 4.76991 | -52.47023 | 1999 ft | 143 kts | 66° |
| 2026-04-29 18:30 | 4.77405 | -52.46126 | 1830 ft | 141 kts | 64° |
| 2026-04-29 18:30 | 4.77810 | -52.45248 | 1667 ft | 138 kts | 64° |
| 2026-04-29 18:31 | 4.78213 | -52.44367 | 1480 ft | 139 kts | 65° |
| 2026-04-29 18:31 | 4.78608 | -52.43517 | 1281 ft | 133 kts | 64° |
| 2026-04-29 18:31 | 4.78984 | -52.42696 | 982 ft | 125 kts | 68° |
| 2026-04-29 18:31 | 4.79359 | -52.41868 | 912 ft | 135 kts | 66° |
| 2026-04-29 18:32 | 4.79751 | -52.40996 | 734 ft | 136 kts | 66° |
| 2026-04-29 18:32 | 4.80543 | -52.39251 | 464 ft | 136 kts | 63° |
| 2026-04-29 18:32 | 4.80938 | -52.38428 | 258 ft | 127 kts | 64° |
| 2026-04-29 18:33 | 4.81307 | -52.37628 | 66 ft | 125 kts | 66° |
| 2026-04-29 18:33 | 4.81646 | -52.36889 | 32 ft | 97 kts | 65° |
| 2026-04-29 18:33 | 4.81853 | -52.36440 | 33 ft | 45 kts | 65° |
| 2026-04-29 18:33 | 4.81913 | -52.36308 | 33 ft | 8 kts | 65° |
| 2026-04-29 18:34 | 4.81935 | -52.36260 | 33 ft | 7 kts | 65° |
| 2026-04-29 18:34 | 4.81954 | -52.36232 | 33 ft | 7 kts | 46° |
| 2026-04-29 18:34 | 4.82004 | -52.36231 | 33 ft | 6 kts | 339° |
| 2026-04-29 18:34 | 4.82043 | -52.36247 | 33 ft | 7 kts | 338° |
| 2026-04-29 18:35 | 4.82090 | -52.36265 | 33 ft | 8 kts | 339° |
| 2026-04-29 18:35 | 4.82139 | -52.36288 | 33 ft | 8 kts | 335° |
| 2026-04-29 18:35 | 4.82170 | -52.36302 | 33 ft | 2 kts | 335° |
| 2026-04-29 18:35 | 4.82178 | -52.36306 | 33 ft | 0 kts | 335° |